Portada
METAR-TAF:

METAR-TAF

Aeropuertos :

Berlin, Nuevo Hampshire, Estados Unidos

latitud: 44-34-34N, longitud: 071-10-43W, altitud: 353 m

Observación

El informe se hizo hace 52 minutos, a las 02:52 UTC
Viento calma
Temperatura -1°C
Humedad 93%
Presión 1001 hPa
Visibilidad: 16.1 km
Cielo despejado

METAR: KBML 210252Z AUTO 00000KT 10SM CLR M01/M02 A2957 RMK AO2 SLP023 T10111017 53014

Hora: 23:44 (03:44 UTC)


TAF: falta

Observaciones y pronósticos meteorológicos de más de 4000 aeropuertos (mensajes METAR y TAF).

Los puntos amarillos y rojos representan las estaciones disponibles.

Ponga el ratón en el punto deseado para ver el nombre de la estación.

Haga clic para ver las observaciones y los pronósticos meteorológicos.

Para cambiar el mapa : haga clic en los botones verdes con una cruz de color negro para hacer un zoom, en el botón verde con un guión para alejar o en las flechas verdes para mapas adyacentes.


METAR-TAF: